Latest Coastal Weather Observations for Redcliffe

IDQ60701

Issued at 11:21 am EST Wednesday 29 March 2017 (issued every 10 minutes, with the page automatically refreshed every 10 minutes)

About coastal observations | Map of coastal stations | Coastal observations for QLD | Marine services | Other Formats
Station Details ID: 040958 Name: REDCLIFFE Lat: -27.22 Lon: 153.09 Height: 12.6 m
Data from the previous 72 hours. | See also: Recent months at Redcliffe
Date/Time
EST
Temp
°C
Wind Pressure Rain since
9am
mm
Weather Cloud Vis
km
Sea
Height
m
Swell
Dir  Spd
kts
Gust
kts
hPa Trend Height
m
Period
s
Dir
29/11:00am 28.7 E 10 12 1014.0 - 0.0 - - - - - - -
29/10:30am 27.6 E 7 9 1014.3 - 0.0 - - - - - - -
29/10:00am 27.3 E 13 15 1014.4 - 0.0 - - - - - - -
29/09:30am 27.1 ENE 11 13 1014.5 - 0.0 - - - - - - -
29/09:00am 26.7 E 9 10 1014.2 - 0.0 - - - - - - -
29/08:30am 25.3 E 7 10 1014.1 - 0.0 - - - - - - -
29/08:00am 26.0 E 12 18 1014.1 - 0.0 - - - - - - -
29/07:30am 26.5 ESE 11 13 1013.8 - 0.0 - - - - - - -
29/07:00am 26.4 ESE 11 13 1013.5 - 0.0 - - - - - - -
29/06:30am 25.7 E 11 14 1013.4 - 0.0 - - - - - - -
29/06:00am 25.4 E 12 14 1013.1 - 0.0 - - - - - - -
29/05:30am 25.4 E 12 14 1012.8 - 0.0 - - - - - - -
29/05:00am 25.4 E 13 14 1012.8 - 0.0 - - - - - - -
29/04:30am 25.4 E 12 14 1012.4 - 0.0 - - - - - - -
29/04:00am 25.4 E 10 12 1012.4 - 0.0 - - - - - - -
29/03:30am 25.3 E 11 14 1012.2 - 0.0 - - - - - - -
29/03:00am 25.2 E 11 13 1012.1 - 0.0 - - - - - - -
29/02:30am 25.3 E 10 11 1012.2 - 0.0 - - - - - - -
29/02:00am 25.4 E 10 13 1012.4 - 0.0 - - - - - - -
29/01:30am 25.4 E 9 11 1012.8 - 0.0 - - - - - - -
29/01:00am 25.4 ENE 9 11 1013.2 - 0.0 - - - - - - -
29/12:30am 25.4 ENE 9 12 1013.3 - 0.0 - - - - - - -
29/12:00am 25.5 ENE 10 11 1013.6 - 0.0 - - - - - - -
 
Date/Time
EST
Temp
°C
Wind Pressure Rain since
9am
mm
Weather Cloud Vis
km
Sea
Height
m
Swell
Dir  Spd
kts
Gust
kts
hPa Trend Height
m
Period
s
Dir
28/11:30pm 25.6 ENE 9 11 1013.7 - 0.0 - - - - - - -
28/11:00pm 25.8 ENE 10 13 1013.7 - 0.0 - - - - - - -
28/10:30pm 25.7 E 10 13 1014.0 - 0.0 - - - - - - -
28/10:00pm 25.7 E 11 13 1014.0 - 0.0 - - - - - - -
28/09:30pm 25.7 E 11 12 1014.0 - 0.0 - - - - - - -
28/09:00pm 25.7 ENE 10 11 1014.1 - 0.0 - - - - - - -
28/08:30pm 25.6 E 10 10 1013.9 - 0.0 - - - - - - -
28/08:00pm 25.5 E 9 11 1013.6 - 0.0 - - - - - - -
28/07:30pm 25.5 ENE 10 12 1013.3 - 0.0 - - - - - - -
28/07:00pm 25.6 E 10 12 1013.0 - 0.0 - - - - - - -
28/06:30pm 25.6 E 10 11 1012.6 - 0.0 - - - - - - -
28/06:00pm 25.8 E 10 12 1012.6 - 0.0 - - - - - - -
28/05:30pm 26.0 ENE 11 14 1012.3 - 0.0 - - - - - - -
28/05:00pm 26.4 ENE 11 14 1012.1 - 0.0 - - - - - - -
28/04:30pm 26.8 E 10 12 1011.8 - 0.0 - - - - - - -
28/04:00pm 27.3 ESE 10 13 1011.8 - 0.0 - - - - - - -
28/03:30pm 27.5 ENE 7 9 1011.9 - 0.0 - - - - - - -
28/03:00pm 27.4 ESE 9 11 1011.9 - 0.0 - - - - - - -
28/02:30pm 27.6 ESE 9 10 1012.0 - 0.0 - - - - - - -
28/02:00pm 27.6 ESE 8 9 1012.1 - 0.0 - - - - - - -
28/01:30pm 27.5 E 7 8 1012.5 - 0.0 - - - - - - -
28/01:00pm 27.6 ESE 7 9 1012.7 - 0.0 - - - - - - -
28/12:30pm 27.9 SE 7 9 1013.1 - 0.0 - - - - - - -
28/12:00pm 28.1 ESE 6 8 1013.3 - 0.0 - - - - - - -
28/11:30am 27.9 ESE 6 8 1013.8 - 0.0 - - - - - - -
28/11:00am 28.0 SE 7 8 1014.1 - 0.0 - - - - - - -
28/10:30am 27.7 ESE 6 8 1014.4 - 0.0 - - - - - - -
28/10:00am 27.7 ESE 6 7 1014.7 - 0.0 - - - - - - -
28/09:30am 27.3 E 6 8 1014.7 - 0.0 - - - - - - -
28/09:00am 26.9 S 7 8 1014.7 - 0.0 - - - - - - -
28/08:30am 26.9 S 6 7 1014.5 - 0.0 - - - - - - -
28/08:00am 26.1 SSE 5 6 1014.5 - 0.0 - - - - - - -
28/07:30am 23.4 SSW 5 7 1014.2 - 0.0 - - - - - - -
28/07:00am 22.3 SW 4 6 1014.0 - 0.0 - - - - - - -
28/06:30am 22.2 SSW 6 9 1013.8 - 0.0 - - - - - - -
28/06:00am 21.6 ESE 6 8 1013.2 - 0.0 - - - - - - -
28/05:30am 21.6 E 7 8 1012.8 - 0.0 - - - - - - -
28/05:00am 21.7 E 7 9 1012.4 - 0.0 - - - - - - -
28/04:30am 21.9 E 7 9 1012.2 - 0.0 - - - - - - -
28/04:00am 22.4 ESE 7 8 1012.1 - 0.0 - - - - - - -
28/03:30am 23.7 E 8 9 1012.0 - 0.0 - - - - - - -
28/03:00am 24.0 E 8 10 1012.3 - 0.0 - - - - - - -
28/02:30am 24.2 ENE 8 10 1012.5 - 0.0 - - - - - - -
28/02:00am 24.3 ENE 7 9 1012.9 - 0.0 - - - - - - -
28/01:30am 24.3 ENE 8 9 1013.2 - 0.0 - - - - - - -
28/01:00am 24.6 ENE 9 12 1013.4 - 0.0 - - - - - - -
28/12:30am 24.6 ENE 10 13 1013.7 - 0.0 - - - - - - -
28/12:00am 24.8 ENE 9 11 1014.2 - 0.0 - - - - - - -
 
Date/Time
EST
Temp
°C
Wind Pressure Rain since
9am
mm
Weather Cloud Vis
km
Sea
Height
m
Swell
Dir  Spd
kts
Gust
kts
hPa Trend Height
m
Period
s
Dir
27/11:30pm 25.0 ENE 10 13 1014.5 - 0.0 - - - - - - -
27/11:00pm 24.7 ENE 7 9 1014.7 - 0.0 - - - - - - -
27/10:30pm 24.5 E 7 8 1014.9 - 0.0 - - - - - - -
27/10:00pm 24.6 E 8 10 1015.0 - 0.0 - - - - - - -
27/09:30pm 24.9 E 9 10 1015.0 - 0.0 - - - - - - -
27/09:00pm 24.9 E 9 11 1015.1 - 0.0 - - - - - - -
27/08:30pm 24.8 E 10 12 1015.1 - 0.0 - - - - - - -
27/08:00pm 24.9 E 9 10 1014.9 - 0.0 - - - - - - -
27/07:30pm 24.9 E 10 13 1014.5 - 0.0 - - - - - - -
27/07:00pm 25.0 E 9 11 1014.2 - 0.0 - - - - - - -
27/06:30pm 25.1 E 10 12 1014.0 - 0.0 - - - - - - -
27/06:00pm 25.2 E 10 12 1013.6 - 0.0 - - - - - - -
27/05:30pm 25.5 E 11 13 1013.3 - 0.0 - - - - - - -
27/05:00pm 25.9 E 12 15 1013.0 - 0.0 - - - - - - -
27/04:30pm 26.1 E 13 15 1012.9 - 0.0 - - - - - - -
27/04:00pm 26.5 ESE 14 16 1012.8 - 0.0 - - - - - - -
27/03:30pm 26.5 ESE 14 16 1012.9 - 0.0 - - - - - - -
27/03:00pm 26.8 E 13 15 1013.0 - 0.0 - - - - - - -
27/02:30pm 26.9 E 13 15 1013.1 - 0.0 - - - - - - -
27/02:00pm 27.5 E 12 14 1013.4 - 0.0 - - - - - - -
27/01:30pm 27.6 E 12 14 1013.7 - 0.0 - - - - - - -
27/01:00pm 27.3 ESE 11 15 1013.9 - 0.0 - - - - - - -
27/12:30pm 27.4 SE 12 14 1014.4 - 0.0 - - - - - - -
27/12:00pm 27.3 SE 12 15 1014.8 - 0.0 - - - - - - -
27/11:30am 27.6 SSE 12 14 1015.1 - 0.0 - - - - - - -
27/11:00am 27.3 SSE 12 14 1015.5 - 0.0 - - - - - - -
27/10:30am 27.0 SSE 11 13 1015.7 - 0.0 - - - - - - -
27/10:00am 27.1 SSE 10 14 1015.8 - 0.0 - - - - - - -
27/09:30am 26.7 SSE 11 13 1016.0 - 0.0 - - - - - - -
27/09:00am 26.7 SSE 12 14 1015.8 - 0.0 - - - - - - -
27/08:30am 26.6 SSE 11 14 1015.8 - 0.0 - - - - - - -
27/08:00am 26.5 SE 11 14 1015.5 - 0.0 - - - - - - -
27/07:30am 26.0 SE 11 13 1015.2 - 0.0 - - - - - - -
27/07:00am 25.3 SE 9 11 1014.8 - 0.0 - - - - - - -
27/06:30am 24.9 SE 8 10 1014.5 - 0.0 - - - - - - -
27/06:00am 24.4 SE 8 9 1014.3 - 0.0 - - - - - - -
27/05:30am 24.7 ESE 7 9 1014.1 - 0.0 - - - - - - -
27/05:00am 24.4 ESE 8 9 1013.9 - 0.0 - - - - - - -
27/04:30am 24.5 E 7 9 1013.8 - 0.0 - - - - - - -
27/04:00am 24.7 ESE 7 9 1013.7 - 0.0 - - - - - - -
27/03:30am 25.0 ESE 7 9 1014.0 - 0.0 - - - - - - -
27/03:00am 25.0 ESE 8 9 1014.0 - 0.0 - - - - - - -
27/02:30am 25.1 ESE 7 9 1014.2 - 0.0 - - - - - - -
27/02:00am 25.3 ESE 7 9 1014.2 - 0.0 - - - - - - -
27/01:30am 25.3 ESE 7 9 1014.5 - 0.0 - - - - - - -
27/01:00am 25.3 E 8 10 1014.7 - 0.0 - - - - - - -
27/12:30am 25.4 E 8 9 1014.9 - 0.0 - - - - - - -
27/12:00am 25.4 E 8 9 1015.2 - 0.0 - - - - - - -
 
Date/Time
EST
Temp
°C
Wind Pressure Rain since
9am
mm
Weather Cloud Vis
km
Sea
Height
m
Swell
Dir  Spd
kts
Gust
kts
hPa Trend Height
m
Period
s
Dir
26/11:30pm 25.3 E 8 9 1015.5 - 0.0 - - - - - - -
26/11:00pm 25.0 ENE 7 8 1015.5 - 0.0 - - - - - - -
26/10:30pm 24.8 ENE 6 7 1015.5 - 0.0 - - - - - - -
26/10:00pm 24.9 ENE 5 7 1015.6 - 0.0 - - - - - - -
26/09:30pm 25.2 E 6 7 1015.7 - 0.0 - - - - - - -
26/09:00pm 25.3 ENE 9 10 1015.5 - 0.0 - - - - - - -
26/08:30pm 25.2 ENE 9 10 1015.1 - 0.0 - - - - - - -
26/08:00pm 25.4 NE 9 12 1014.8 - 0.0 - - - - - - -
26/07:30pm 25.5 NE 9 10 1014.4 - 0.0 - - - - - - -
26/07:00pm 25.6 NNE 9 11 1014.1 - 0.0 - - - - - - -
26/06:30pm 25.6 NNE 11 14 1013.6 - 0.0 - - - - - - -
26/06:00pm 25.6 NE 13 15 1013.2 - 0.0 - - - - - - -
26/05:30pm 25.8 NNE 13 15 1012.8 - 0.0 - - - - - - -
26/05:00pm 26.1 NNE 15 17 1012.3 - 0.0 - - - - - - -
26/04:30pm 26.6 NNE 15 16 1012.1 - 0.0 - - - - - - -
26/04:00pm 27.0 NE 11 13 1012.1 - 0.0 - - - - - - -
26/03:30pm 27.7 NE 9 10 1012.1 - 0.0 - - - - - - -
26/03:00pm 27.8 NE 9 10 1012.1 - 0.0 - - - - - - -
26/02:30pm 28.0 ENE 7 8 1012.3 - 0.0 - - - - - - -
26/02:00pm 27.3 ENE 7 9 1012.7 - 0.0 - - - - - - -
26/01:30pm 27.3 NE 7 8 1013.0 - 0.0 - - - - - - -
26/01:00pm 27.7 NE 7 8 1013.3 - 0.0 - - - - - - -
26/12:30pm 27.4 ENE 6 7 1013.9 - 0.0 - - - - - - -
26/12:00pm 27.5 SE 5 6 1014.5 - 0.0 - - - - - - -
26/11:30am 27.6 SE 5 6 1015.1 - 0.0 - - - - - - -

Other Formats:

Comma delimited format used in spreadsheet applications
http://www.bom.gov.au/fwo/IDQ60701/IDQ60701.95591.axf

JavaScript Object Notation format (JSON) in row-major order
http://www.bom.gov.au/fwo/IDQ60701/IDQ60701.95591.json